Time,TemperatureF,DewpointF,PressureIn,WindDirection,WindDirectionDegrees,WindSpeedMPH,WindSpeedGustMPH,Humidity,HourlyPrecipIn,Conditions,Clouds,dailyrainin,SoftwareType,DateUTC
2013-04-17 00:00:00,51.6,50.5,30.19,NE,40,0.0,0.0,96,0.00,,,0.00,Wunderground v.1.15,2013-04-17 04:00:00,
2013-04-17 00:05:00,51.5,50.4,30.19,NE,40,0.0,0.0,96,0.00,,,0.00,Wunderground v.1.15,2013-04-17 04:05:00,
2013-04-17 00:10:00,51.2,50.1,30.19,NE,39,0.0,0.0,96,0.00,,,0.00,Wunderground v.1.15,2013-04-17 04:10:00,
2013-04-17 00:15:00,51.0,49.9,30.19,NE,40,0.0,0.0,96,0.00,,,0.00,Wunderground v.1.15,2013-04-17 04:15:00,
2013-04-17 00:20:00,50.8,49.7,30.20,NE,40,0.0,0.0,96,0.00,,,0.00,Wunderground v.1.15,2013-04-17 04:20:00,
2013-04-17 00:25:00,50.5,49.4,30.20,NE,40,0.0,0.0,96,0.00,,,0.00,Wunderground v.1.15,2013-04-17 04:25:00,
2013-04-17 00:35:00,50.0,48.9,30.21,NE,40,0.0,0.0,96,0.00,,,0.00,Wunderground v.1.15,2013-04-17 04:35:00,
2013-04-17 00:40:00,50.0,49.2,30.21,N/A,-737280,0.0,-999.0,97,0.00,,,0.01,Wunderground v.1.15,2013-04-17 04:40:00,
2013-04-17 00:45:00,50.1,49.3,30.21,N/A,-737280,0.0,-999.0,97,0.00,,,0.01,Wunderground v.1.15,2013-04-17 04:45:00,
2013-04-17 00:50:00,50.3,49.5,30.20,N/A,-737280,0.0,-999.0,97,0.00,,,0.01,Wunderground v.1.15,2013-04-17 04:50:00,
2013-04-17 00:55:00,50.6,49.8,30.20,N/A,-737280,0.0,-999.0,97,0.00,,,0.01,Wunderground v.1.15,2013-04-17 04:55:00,
2013-04-17 01:00:00,50.7,49.9,30.20,N/A,-737280,0.0,-999.0,97,0.00,,,0.01,Wunderground v.1.15,2013-04-17 05:00:00,
2013-04-17 01:05:00,50.4,49.6,30.20,N/A,-737280,0.0,-999.0,97,0.00,,,0.01,Wunderground v.1.15,2013-04-17 05:05:00,
2013-04-17 01:10:00,50.2,49.4,30.20,N/A,-737280,0.0,-999.0,97,0.00,,,0.01,Wunderground v.1.15,2013-04-17 05:10:00,
2013-04-17 01:15:00,50.1,49.3,30.19,N/A,-737280,0.0,-999.0,97,0.00,,,0.01,Wunderground v.1.15,2013-04-17 05:15:00,
2013-04-17 01:20:00,49.7,48.9,30.19,N/A,-737280,0.0,-999.0,97,0.00,,,0.01,Wunderground v.1.15,2013-04-17 05:20:00,
2013-04-17 01:25:00,49.6,48.8,30.20,N/A,-737280,0.0,-999.0,97,0.00,,,0.01,Wunderground v.1.15,2013-04-17 05:25:00,
2013-04-17 01:30:00,49.2,48.4,30.20,N/A,-737280,0.0,-999.0,97,0.00,,,0.01,Wunderground v.1.15,2013-04-17 05:30:00,
2013-04-17 01:35:00,49.1,48.3,30.19,N/A,-737280,0.0,-999.0,97,0.00,,,0.01,Wunderground v.1.15,2013-04-17 05:35:00,
2013-04-17 01:40:00,49.0,48.2,30.20,N/A,-737280,0.0,-999.0,97,0.00,,,0.01,Wunderground v.1.15,2013-04-17 05:40:00,
2013-04-17 01:45:00,48.9,48.1,30.20,N/A,-737280,0.0,-999.0,97,0.00,,,0.01,Wunderground v.1.15,2013-04-17 05:45:00,
2013-04-17 01:50:00,48.7,47.9,30.20,N/A,-737280,0.0,-999.0,97,0.00,,,0.01,Wunderground v.1.15,2013-04-17 05:50:00,
2013-04-17 01:55:00,48.6,47.8,30.20,N/A,-737280,0.0,-999.0,97,0.00,,,0.01,Wunderground v.1.15,2013-04-17 05:55:00,
2013-04-17 02:00:00,48.8,48.0,30.19,N/A,-737280,0.0,-999.0,97,0.00,,,0.01,Wunderground v.1.15,2013-04-17 06:00:00,
2013-04-17 02:05:00,48.9,48.1,30.19,N/A,-737280,0.0,-999.0,97,0.00,,,0.01,Wunderground v.1.15,2013-04-17 06:05:00,
2013-04-17 02:10:00,48.6,47.8,30.19,N/A,-737280,0.0,-999.0,97,0.00,,,0.01,Wunderground v.1.15,2013-04-17 06:10:00,
2013-04-17 02:15:00,48.4,47.6,30.19,N/A,-737280,0.0,-999.0,97,0.00,,,0.01,Wunderground v.1.15,2013-04-17 06:15:00,
2013-04-17 02:20:00,48.1,47.3,30.20,N/A,-737280,0.0,-999.0,97,0.00,,,0.01,Wunderground v.1.15,2013-04-17 06:20:00,
2013-04-17 02:25:00,47.9,47.1,30.20,NE,45,0.0,-999.0,97,0.00,,,0.01,Wunderground v.1.15,2013-04-17 06:25:00,
2013-04-17 02:30:00,47.6,46.8,30.19,NE,45,1.0,-999.0,97,0.00,,,0.01,Wunderground v.1.15,2013-04-17 06:30:00,
2013-04-17 02:35:00,47.6,46.8,30.19,N/A,-737280,0.0,-999.0,97,0.00,,,0.01,Wunderground v.1.15,2013-04-17 06:35:00,
2013-04-17 02:40:00,47.5,46.7,30.19,NE,45,0.0,-999.0,97,0.00,,,0.01,Wunderground v.1.15,2013-04-17 06:40:00,
2013-04-17 02:45:00,47.4,46.6,30.19,NE,45,1.0,-999.0,97,0.00,,,0.01,Wunderground v.1.15,2013-04-17 06:45:00,
2013-04-17 02:50:00,47.7,46.9,30.19,NE,45,2.0,-999.0,97,0.00,,,0.01,Wunderground v.1.15,2013-04-17 06:50:00,
2013-04-17 02:55:00,48.5,48.0,30.20,NE,45,1.0,-999.0,98,0.00,,,0.01,Wunderground v.1.15,2013-04-17 06:55:00,
2013-04-17 03:00:00,49.2,48.7,30.19,North,0,1.0,-999.0,98,0.01,,,0.01,Wunderground v.1.15,2013-04-17 07:00:00,
2013-04-17 03:10:00,49.9,49.4,30.21,North,0,0.0,-999.0,98,0.01,,,0.01,Wunderground v.1.15,2013-04-17 07:10:00,
2013-04-17 03:15:00,50.1,49.6,30.20,NNE,23,4.0,-999.0,98,0.01,,,0.01,Wunderground v.1.15,2013-04-17 07:15:00,
2013-04-17 03:20:00,50.2,49.7,30.20,NNE,23,3.0,-999.0,98,0.01,,,0.01,Wunderground v.1.15,2013-04-17 07:20:00,
2013-04-17 03:25:00,50.3,49.8,30.20,NNE,23,2.0,-999.0,98,0.01,,,0.01,Wunderground v.1.15,2013-04-17 07:25:00,
2013-04-17 03:30:00,50.3,49.8,30.21,North,0,2.0,-999.0,98,0.01,,,0.01,Wunderground v.1.15,2013-04-17 07:30:00,
2013-04-17 03:35:00,50.3,49.8,30.20,NNE,23,3.0,-999.0,98,0.01,,,0.01,Wunderground v.1.15,2013-04-17 07:35:00,
2013-04-17 03:40:00,50.3,49.8,30.21,NNE,23,1.0,-999.0,98,0.01,,,0.01,Wunderground v.1.15,2013-04-17 07:40:00,
2013-04-17 03:45:00,50.2,49.7,30.21,NNE,19,1.0,1.0,98,0.00,,,0.01,Wunderground v.1.15,2013-04-17 07:45:00,
2013-04-17 03:50:00,50.2,49.7,30.21,NNE,16,1.0,2.0,98,0.00,,,0.01,Wunderground v.1.15,2013-04-17 07:50:00,
2013-04-17 03:55:00,50.1,49.6,30.21,NNE,15,2.0,2.0,98,0.00,,,0.01,Wunderground v.1.15,2013-04-17 07:55:00,
2013-04-17 04:00:00,50.1,49.6,30.21,NNE,27,2.0,2.0,98,0.00,,,0.01,Wunderground v.1.15,2013-04-17 08:00:00,
2013-04-17 04:05:00,50.1,49.6,30.21,NNE,23,1.0,-999.0,98,0.00,,,0.01,Wunderground v.1.15,2013-04-17 08:05:00,
2013-04-17 04:10:00,50.1,49.6,30.21,NNE,19,2.0,3.0,98,0.00,,,0.01,Wunderground v.1.15,2013-04-17 08:10:00,
2013-04-17 04:15:00,50.0,49.5,30.21,NNE,20,3.0,3.0,98,0.00,,,0.01,Wunderground v.1.15,2013-04-17 08:15:00,
2013-04-17 04:20:00,49.9,49.4,30.21,NNE,23,3.0,3.0,98,0.00,,,0.01,Wunderground v.1.15,2013-04-17 08:20:00,
2013-04-17 04:25:00,49.9,49.4,30.21,NNE,19,2.0,3.0,98,0.00,,,0.01,Wunderground v.1.15,2013-04-17 08:25:00,
2013-04-17 04:30:00,49.8,49.3,30.21,NNE,25,2.0,2.0,98,0.00,,,0.01,Wunderground v.1.15,2013-04-17 08:30:00,
2013-04-17 04:35:00,49.8,49.3,30.21,NE,44,2.0,3.0,98,0.00,,,0.01,Wunderground v.1.15,2013-04-17 08:35:00,
2013-04-17 04:40:00,49.8,49.3,30.21,NNE,18,3.0,4.0,98,0.00,,,0.01,Wunderground v.1.15,2013-04-17 08:40:00,
2013-04-17 04:45:00,49.9,49.4,30.21,NNE,29,3.0,4.0,98,0.00,,,0.01,Wunderground v.1.15,2013-04-17 08:45:00,
2013-04-17 04:50:00,49.8,49.3,30.21,NNE,30,3.0,3.0,98,0.00,,,0.01,Wunderground v.1.15,2013-04-17 08:50:00,
2013-04-17 04:55:00,49.8,49.3,30.21,NNE,27,3.0,3.0,98,0.00,,,0.01,Wunderground v.1.15,2013-04-17 08:55:00,
2013-04-17 05:00:00,49.8,49.3,30.21,NNE,31,4.0,4.0,98,0.00,,,0.01,Wunderground v.1.15,2013-04-17 09:00:00,
2013-04-17 05:05:00,49.8,49.3,30.21,NNE,23,4.0,-999.0,98,0.00,,,0.01,Wunderground v.1.15,2013-04-17 09:05:00,
2013-04-17 05:10:00,49.8,49.3,30.21,NE,41,3.0,4.0,98,0.00,,,0.01,Wunderground v.1.15,2013-04-17 09:10:00,
2013-04-17 05:15:00,49.7,49.2,30.21,NE,34,4.0,4.0,98,0.00,,,0.01,Wunderground v.1.15,2013-04-17 09:15:00,
2013-04-17 05:20:00,49.6,49.1,30.21,NNE,23,4.0,4.0,98,0.00,,,0.01,Wunderground v.1.15,2013-04-17 09:20:00,
2013-04-17 05:25:00,49.5,49.0,30.21,NNE,23,4.0,4.0,98,0.00,,,0.01,Wunderground v.1.15,2013-04-17 09:25:00,
2013-04-17 05:30:00,49.5,48.7,30.21,NNE,23,2.0,-999.0,97,0.00,,,0.01,Wunderground v.1.15,2013-04-17 09:30:00,
2013-04-17 05:35:00,49.4,48.6,30.21,NNE,19,2.0,3.0,97,0.00,,,0.01,Wunderground v.1.15,2013-04-17 09:35:00,
2013-04-17 05:40:00,49.3,48.5,30.22,NNE,16,2.0,4.0,97,0.00,,,0.01,Wunderground v.1.15,2013-04-17 09:40:00,
2013-04-17 05:45:00,49.3,48.5,30.22,NNE,16,2.0,4.0,97,0.00,,,0.01,Wunderground v.1.15,2013-04-17 09:45:00,
2013-04-17 05:50:00,49.2,48.4,30.22,NNE,16,1.0,1.0,97,0.00,,,0.01,Wunderground v.1.15,2013-04-17 09:50:00,
2013-04-17 05:55:00,49.1,48.3,30.22,NNE,16,0.0,1.0,97,0.00,,,0.01,Wunderground v.1.15,2013-04-17 09:55:00,
2013-04-17 06:00:00,49.1,48.3,30.22,NNE,23,1.0,-999.0,97,0.00,,,0.01,Wunderground v.1.15,2013-04-17 10:00:00,
2013-04-17 06:05:00,49.2,48.4,30.23,North,10,2.0,2.0,97,0.00,,,0.01,Wunderground v.1.15,2013-04-17 10:05:00,
2013-04-17 06:10:00,49.1,48.3,30.23,North,5,2.0,2.0,97,0.00,,,0.01,Wunderground v.1.15,2013-04-17 10:10:00,
2013-04-17 06:15:00,49.1,48.3,30.24,North,6,0.0,2.0,97,0.00,,,0.01,Wunderground v.1.15,2013-04-17 10:15:00,
2013-04-17 06:20:00,49.1,48.3,30.24,N/A,-737280,0.0,-999.0,97,0.00,,,0.01,Wunderground v.1.15,2013-04-17 10:20:00,
2013-04-17 06:25:00,49.0,48.2,30.23,N/A,-737280,0.0,-999.0,97,0.00,,,0.01,Wunderground v.1.15,2013-04-17 10:25:00,
2013-04-17 06:30:00,49.0,48.2,30.24,N/A,-737280,0.0,-999.0,97,0.00,,,0.01,Wunderground v.1.15,2013-04-17 10:30:00,
2013-04-17 06:35:00,48.9,48.1,30.24,North,0,1.0,-999.0,97,0.00,,,0.01,Wunderground v.1.15,2013-04-17 10:35:00,
2013-04-17 06:40:00,49.0,48.2,30.24,NNE,23,2.0,-999.0,97,0.00,,,0.01,Wunderground v.1.15,2013-04-17 10:40:00,
2013-04-17 06:45:00,49.0,48.2,30.24,NNE,23,2.0,-999.0,97,0.00,,,0.01,Wunderground v.1.15,2013-04-17 10:45:00,
2013-04-17 06:50:00,49.1,48.3,30.24,NNE,23,3.0,-999.0,97,0.00,,,0.01,Wunderground v.1.15,2013-04-17 10:50:00,
2013-04-17 06:55:00,49.2,48.4,30.24,NE,45,4.0,-999.0,97,0.00,,,0.01,Wunderground v.1.15,2013-04-17 10:55:00,
2013-04-17 07:00:00,49.2,48.4,30.24,NNE,23,3.0,-999.0,97,0.00,,,0.01,Wunderground v.1.15,2013-04-17 11:00:00,
2013-04-17 07:05:00,49.3,48.5,30.25,NNE,23,2.0,-999.0,97,0.00,,,0.01,Wunderground v.1.15,2013-04-17 11:05:00,
2013-04-17 07:10:00,49.3,48.5,30.25,NNE,23,3.0,-999.0,97,0.00,,,0.01,Wunderground v.1.15,2013-04-17 11:10:00,
2013-04-17 07:15:00,49.4,48.6,30.25,North,0,3.0,-999.0,97,0.00,,,0.01,Wunderground v.1.15,2013-04-17 11:15:00,
2013-04-17 07:20:00,49.4,48.6,30.25,NNE,23,2.0,-999.0,97,0.00,,,0.01,Wunderground v.1.15,2013-04-17 11:20:00,
2013-04-17 07:25:00,49.4,48.6,30.24,NE,45,2.0,-999.0,97,0.00,,,0.01,Wunderground v.1.15,2013-04-17 11:25:00,
2013-04-17 07:30:00,49.4,48.6,30.24,NNE,23,4.0,-999.0,97,0.00,,,0.01,Wunderground v.1.15,2013-04-17 11:30:00,
2013-04-17 07:35:00,49.4,48.3,30.25,NNE,23,5.0,-999.0,96,0.00,,,0.01,Wunderground v.1.15,2013-04-17 11:35:00,
2013-04-17 07:40:00,49.5,48.4,30.25,NNE,23,5.0,-999.0,96,0.00,,,0.01,Wunderground v.1.15,2013-04-17 11:40:00,
2013-04-17 07:45:00,49.6,48.5,30.26,NNE,23,5.0,-999.0,96,0.00,,,0.01,Wunderground v.1.15,2013-04-17 11:45:00,
2013-04-17 07:50:00,49.7,48.6,30.26,NNE,23,4.0,-999.0,96,0.00,,,0.01,Wunderground v.1.15,2013-04-17 11:50:00,
2013-04-17 07:55:00,49.8,48.4,30.26,NNE,23,6.0,-999.0,95,0.00,,,0.01,Wunderground v.1.15,2013-04-17 11:55:00,
2013-04-17 08:00:00,49.9,48.5,30.26,NE,45,4.0,-999.0,95,0.00,,,0.01,Wunderground v.1.15,2013-04-17 12:00:00,
2013-04-17 08:05:00,49.9,48.5,30.26,NE,45,5.0,-999.0,95,0.00,,,0.01,Wunderground v.1.15,2013-04-17 12:05:00,
2013-04-17 08:10:00,49.9,48.2,30.26,NNE,23,4.0,-999.0,94,0.00,,,0.01,Wunderground v.1.15,2013-04-17 12:10:00,
2013-04-17 08:15:00,50.0,48.3,30.26,NNE,23,6.0,-999.0,94,0.00,,,0.01,Wunderground v.1.15,2013-04-17 12:15:00,
2013-04-17 08:20:00,50.1,48.4,30.25,NE,45,3.0,-999.0,94,0.00,,,0.01,Wunderground v.1.15,2013-04-17 12:20:00,
2013-04-17 08:25:00,50.1,48.4,30.25,ENE,68,2.0,-999.0,94,0.00,,,0.01,Wunderground v.1.15,2013-04-17 12:25:00,
2013-04-17 08:30:00,50.3,48.4,30.25,NNE,23,4.0,-999.0,93,0.00,,,0.01,Wunderground v.1.15,2013-04-17 12:30:00,
2013-04-17 08:35:00,50.3,48.4,30.25,NNE,23,6.0,-999.0,93,0.00,,,0.01,Wunderground v.1.15,2013-04-17 12:35:00,
2013-04-17 08:40:00,50.4,48.2,30.26,NE,45,5.0,-999.0,92,0.00,,,0.01,Wunderground v.1.15,2013-04-17 12:40:00,
2013-04-17 08:45:00,50.5,48.0,30.26,NNE,23,5.0,-999.0,91,0.00,,,0.01,Wunderground v.1.15,2013-04-17 12:45:00,
2013-04-17 08:50:00,50.6,48.1,30.26,NNE,23,4.0,-999.0,91,0.00,,,0.01,Wunderground v.1.15,2013-04-17 12:50:00,
2013-04-17 08:55:00,50.6,48.1,30.26,NNE,23,2.0,-999.0,91,0.00,,,0.01,Wunderground v.1.15,2013-04-17 12:55:00,
2013-04-17 09:00:00,50.8,48.3,30.26,NNE,23,2.0,-999.0,91,0.00,,,0.01,Wunderground v.1.15,2013-04-17 13:00:00,
2013-04-17 09:05:00,50.9,48.4,30.26,NE,45,2.0,-999.0,91,0.00,,,0.01,Wunderground v.1.15,2013-04-17 13:05:00,
2013-04-17 09:10:00,51.3,48.5,30.26,NNE,23,2.0,-999.0,90,0.00,,,0.01,Wunderground v.1.15,2013-04-17 13:10:00,
2013-04-17 09:15:00,51.7,48.9,30.26,NNE,23,3.0,-999.0,90,0.00,,,0.01,Wunderground v.1.15,2013-04-17 13:15:00,
2013-04-17 09:20:00,51.9,48.8,30.26,NNE,23,5.0,-999.0,89,0.00,,,0.01,Wunderground v.1.15,2013-04-17 13:20:00,
2013-04-17 09:25:00,52.2,48.8,30.26,NNE,23,2.0,-999.0,88,0.00,,,0.01,Wunderground v.1.15,2013-04-17 13:25:00,
2013-04-17 09:30:00,52.3,48.2,30.26,NE,45,3.0,-999.0,86,0.00,,,0.01,Wunderground v.1.15,2013-04-17 13:30:00,
2013-04-17 09:35:00,52.4,48.3,30.25,NE,45,3.0,-999.0,86,0.00,,,0.01,Wunderground v.1.15,2013-04-17 13:35:00,
2013-04-17 09:40:00,52.8,48.1,30.26,NE,45,4.0,-999.0,84,0.00,,,0.01,Wunderground v.1.15,2013-04-17 13:40:00,
2013-04-17 09:45:00,53.0,48.0,30.26,NNE,23,4.0,-999.0,83,0.00,,,0.01,Wunderground v.1.15,2013-04-17 13:45:00,
2013-04-17 09:50:00,53.1,48.4,30.26,NE,45,4.0,-999.0,84,0.00,,,0.01,Wunderground v.1.15,2013-04-17 13:50:00,
2013-04-17 09:55:00,53.3,48.6,30.26,ENE,68,1.0,-999.0,84,0.00,,,0.01,Wunderground v.1.15,2013-04-17 13:55:00,
2013-04-17 10:00:00,53.8,48.4,30.26,ESE,113,2.0,-999.0,82,0.00,,,0.01,Wunderground v.1.15,2013-04-17 14:00:00,
2013-04-17 10:05:00,54.3,48.3,30.25,NE,45,3.0,-999.0,80,0.00,,,0.01,Wunderground v.1.15,2013-04-17 14:05:00,
2013-04-17 10:10:00,54.6,48.9,30.26,NE,45,3.0,-999.0,81,0.00,,,0.01,Wunderground v.1.15,2013-04-17 14:10:00,
2013-04-17 10:15:00,55.1,48.4,30.26,ENE,68,2.0,-999.0,78,0.00,,,0.01,Wunderground v.1.15,2013-04-17 14:15:00,
2013-04-17 10:20:00,55.5,48.1,30.26,NE,45,3.0,-999.0,76,0.00,,,0.01,Wunderground v.1.15,2013-04-17 14:20:00,
2013-04-17 10:25:00,55.3,47.9,30.26,NE,45,3.0,-999.0,76,0.00,,,0.01,Wunderground v.1.15,2013-04-17 14:25:00,
2013-04-17 10:30:00,55.2,48.1,30.26,NNE,23,3.0,-999.0,77,0.00,,,0.01,Wunderground v.1.15,2013-04-17 14:30:00,
2013-04-17 10:35:00,55.3,47.9,30.26,NNE,23,4.0,-999.0,76,0.00,,,0.01,Wunderground v.1.15,2013-04-17 14:35:00,
2013-04-17 10:40:00,55.5,48.1,30.26,NE,45,4.0,-999.0,76,0.00,,,0.01,Wunderground v.1.15,2013-04-17 14:40:00,
2013-04-17 10:45:00,55.9,48.4,30.26,NNE,23,4.0,-999.0,76,0.00,,,0.01,Wunderground v.1.15,2013-04-17 14:45:00,
2013-04-17 10:50:00,56.2,48.4,30.25,NNE,23,5.0,-999.0,75,0.00,,,0.01,Wunderground v.1.15,2013-04-17 14:50:00,
2013-04-17 10:55:00,56.4,48.2,30.25,NNE,23,4.0,-999.0,74,0.00,,,0.01,Wunderground v.1.15,2013-04-17 14:55:00,
2013-04-17 11:00:00,56.8,48.6,30.25,NNE,23,5.0,-999.0,74,0.00,,,0.01,Wunderground v.1.15,2013-04-17 15:00:00,
2013-04-17 11:05:00,56.8,48.6,30.25,NNE,23,4.0,-999.0,74,0.00,,,0.01,Wunderground v.1.15,2013-04-17 15:05:00,
2013-04-17 11:10:00,57.0,48.4,30.25,NNE,23,4.0,-999.0,73,0.00,,,0.01,Wunderground v.1.15,2013-04-17 15:10:00,
2013-04-17 11:15:00,57.1,49.2,30.25,NNE,23,2.0,-999.0,75,0.00,,,0.01,Wunderground v.1.15,2013-04-17 15:15:00,
2013-04-17 11:20:00,57.7,48.7,30.25,NE,45,4.0,-999.0,72,0.00,,,0.01,Wunderground v.1.15,2013-04-17 15:20:00,
2013-04-17 11:25:00,57.8,48.8,30.25,NNE,23,6.0,-999.0,72,0.00,,,0.01,Wunderground v.1.15,2013-04-17 15:25:00,
2013-04-17 11:30:00,57.7,49.8,30.25,NNE,23,4.0,-999.0,75,0.00,,,0.01,Wunderground v.1.15,2013-04-17 15:30:00,
2013-04-17 11:35:00,57.9,48.9,30.25,NNE,23,4.0,-999.0,72,0.00,,,0.01,Wunderground v.1.15,2013-04-17 15:35:00,
2013-04-17 11:40:00,58.3,48.9,30.25,ESE,113,2.0,-999.0,71,0.00,,,0.01,Wunderground v.1.15,2013-04-17 15:40:00,
2013-04-17 11:45:00,58.9,49.5,30.25,ESE,113,3.0,-999.0,71,0.00,,,0.01,Wunderground v.1.15,2013-04-17 15:45:00,
2013-04-17 11:50:00,59.3,49.9,30.26,ESE,113,2.0,-999.0,71,0.00,,,0.01,Wunderground v.1.15,2013-04-17 15:50:00,
2013-04-17 11:55:00,59.7,49.9,30.26,NNE,23,4.0,-999.0,70,0.00,,,0.01,Wunderground v.1.15,2013-04-17 15:55:00,
2013-04-17 12:00:00,59.5,49.3,30.26,NE,45,5.0,-999.0,69,0.00,,,0.01,Wunderground v.1.15,2013-04-17 16:00:00,
2013-04-17 12:05:00,59.5,49.7,30.26,NE,45,3.0,-999.0,70,0.00,,,0.01,Wunderground v.1.15,2013-04-17 16:05:00,
2013-04-17 12:10:00,59.7,49.9,30.25,NNE,23,2.0,-999.0,70,0.00,,,0.01,Wunderground v.1.15,2013-04-17 16:10:00,
2013-04-17 12:15:00,60.2,49.6,30.26,NE,45,2.0,-999.0,68,0.00,,,0.01,Wunderground v.1.15,2013-04-17 16:15:00,
2013-04-17 12:20:00,60.8,49.8,30.25,East,90,2.0,-999.0,67,0.00,,,0.01,Wunderground v.1.15,2013-04-17 16:20:00,
2013-04-17 12:25:00,61.3,49.8,30.24,ESE,113,2.0,-999.0,66,0.00,,,0.01,Wunderground v.1.15,2013-04-17 16:25:00,
2013-04-17 12:30:00,61.6,50.9,30.25,NNE,23,5.0,-999.0,68,0.00,,,0.01,Wunderground v.1.15,2013-04-17 16:30:00,
2013-04-17 12:35:00,61.3,51.0,30.24,NE,45,4.0,-999.0,69,0.00,,,0.01,Wunderground v.1.15,2013-04-17 16:35:00,
2013-04-17 12:40:00,61.2,50.2,30.24,NE,45,3.0,-999.0,67,0.00,,,0.01,Wunderground v.1.15,2013-04-17 16:40:00,
2013-04-17 12:45:00,61.3,50.2,30.24,ESE,113,2.0,-999.0,67,0.00,,,0.01,Wunderground v.1.15,2013-04-17 16:45:00,
2013-04-17 12:50:00,62.0,50.1,30.24,SSE,158,2.0,-999.0,65,0.00,,,0.01,Wunderground v.1.15,2013-04-17 16:50:00,
2013-04-17 12:55:00,62.5,50.6,30.24,SSW,203,3.0,-999.0,65,0.00,,,0.01,Wunderground v.1.15,2013-04-17 16:55:00,
2013-04-17 13:00:00,62.7,51.2,30.24,NNE,23,2.0,-999.0,66,0.00,,,0.01,Wunderground v.1.15,2013-04-17 17:00:00,
2013-04-17 13:05:00,63.0,50.2,30.24,NE,45,4.0,-999.0,63,0.00,,,0.01,Wunderground v.1.15,2013-04-17 17:05:00,
2013-04-17 13:10:00,62.8,51.7,30.23,NNE,23,2.0,-999.0,67,0.00,,,0.01,Wunderground v.1.15,2013-04-17 17:10:00,
2013-04-17 13:15:00,63.0,51.0,30.23,NNE,23,3.0,-999.0,65,0.00,,,0.01,Wunderground v.1.15,2013-04-17 17:15:00,
2013-04-17 13:20:00,62.9,51.0,30.23,NE,45,5.0,-999.0,65,0.00,,,0.01,Wunderground v.1.15,2013-04-17 17:20:00,
2013-04-17 13:25:00,63.2,51.6,30.23,NNE,23,4.0,-999.0,66,0.00,,,0.01,Wunderground v.1.15,2013-04-17 17:25:00,
2013-04-17 13:30:00,63.7,52.5,30.23,NE,45,3.0,-999.0,67,0.00,,,0.01,Wunderground v.1.15,2013-04-17 17:30:00,
2013-04-17 13:35:00,64.3,51.9,30.23,SSE,158,3.0,-999.0,64,0.00,,,0.01,Wunderground v.1.15,2013-04-17 17:35:00,
2013-04-17 13:40:00,64.2,51.3,30.22,NNE,23,1.0,-999.0,63,0.00,,,0.01,Wunderground v.1.15,2013-04-17 17:40:00,
2013-04-17 13:45:00,64.2,51.3,30.22,NNE,23,3.0,-999.0,63,0.00,,,0.01,Wunderground v.1.15,2013-04-17 17:45:00,
2013-04-17 13:50:00,64.0,51.6,30.23,NE,45,3.0,-999.0,64,0.00,,,0.01,Wunderground v.1.15,2013-04-17 17:50:00,
2013-04-17 13:55:00,63.9,51.9,30.23,NNE,23,1.0,-999.0,65,0.00,,,0.01,Wunderground v.1.15,2013-04-17 17:55:00,
2013-04-17 14:00:00,64.0,51.6,30.23,East,90,3.0,-999.0,64,0.00,,,0.01,Wunderground v.1.15,2013-04-17 18:00:00,
2013-04-17 14:05:00,63.8,52.2,30.22,NNE,23,2.0,-999.0,66,0.00,,,0.01,Wunderground v.1.15,2013-04-17 18:05:00,
2013-04-17 14:10:00,64.2,52.2,30.23,ENE,68,1.0,-999.0,65,0.00,,,0.01,Wunderground v.1.15,2013-04-17 18:10:00,
2013-04-17 14:15:00,64.7,53.9,30.23,WNW,293,2.0,-999.0,68,0.00,,,0.01,Wunderground v.1.15,2013-04-17 18:15:00,
2013-04-17 14:20:00,64.9,53.3,30.23,NE,45,2.0,-999.0,66,0.00,,,0.01,Wunderground v.1.15,2013-04-17 18:20:00,
2013-04-17 14:25:00,65.0,52.1,30.23,NNE,23,5.0,-999.0,63,0.00,,,0.01,Wunderground v.1.15,2013-04-17 18:25:00,
2013-04-17 14:30:00,64.4,52.8,30.22,NNW,338,2.0,-999.0,66,0.00,,,0.01,Wunderground v.1.15,2013-04-17 18:30:00,
2013-04-17 14:35:00,64.7,53.1,30.22,North,0,1.0,-999.0,66,0.00,,,0.01,Wunderground v.1.15,2013-04-17 18:35:00,
2013-04-17 14:40:00,65.7,54.0,30.21,SSE,158,2.0,-999.0,66,0.00,,,0.01,Wunderground v.1.15,2013-04-17 18:40:00,
2013-04-17 14:45:00,66.4,53.4,30.22,NNE,23,2.0,-999.0,63,0.00,,,0.01,Wunderground v.1.15,2013-04-17 18:45:00,
2013-04-17 14:50:00,66.1,53.6,30.21,NNE,23,3.0,-999.0,64,0.00,,,0.01,Wunderground v.1.15,2013-04-17 18:50:00,
2013-04-17 14:55:00,65.5,53.0,30.21,NNE,23,2.0,-999.0,64,0.00,,,0.01,Wunderground v.1.15,2013-04-17 18:55:00,
2013-04-17 15:00:00,65.9,53.4,30.20,NNE,23,2.0,-999.0,64,0.00,,,0.01,Wunderground v.1.15,2013-04-17 19:00:00,
2013-04-17 15:05:00,66.3,53.3,30.20,SE,135,2.0,-999.0,63,0.00,,,0.01,Wunderground v.1.15,2013-04-17 19:05:00,
2013-04-17 15:10:00,66.4,55.1,30.19,NNE,23,5.0,-999.0,67,0.00,,,0.01,Wunderground v.1.15,2013-04-17 19:10:00,
2013-04-17 15:15:00,66.1,54.0,30.19,NNE,23,3.0,-999.0,65,0.00,,,0.01,Wunderground v.1.15,2013-04-17 19:15:00,
2013-04-17 15:20:00,66.3,53.3,30.19,NNE,23,3.0,-999.0,63,0.00,,,0.01,Wunderground v.1.15,2013-04-17 19:20:00,
2013-04-17 15:25:00,66.1,53.6,30.19,SE,135,2.0,-999.0,64,0.00,,,0.01,Wunderground v.1.15,2013-04-17 19:25:00,
2013-04-17 15:30:00,66.1,53.1,30.19,NW,315,2.0,-999.0,63,0.00,,,0.01,Wunderground v.1.15,2013-04-17 19:30:00,
2013-04-17 15:35:00,66.1,54.0,30.20,NW,315,1.0,-999.0,65,0.00,,,0.01,Wunderground v.1.15,2013-04-17 19:35:00,
2013-04-17 15:40:00,66.2,53.7,30.19,NE,45,2.0,-999.0,64,0.00,,,0.01,Wunderground v.1.15,2013-04-17 19:40:00,
2013-04-17 15:45:00,66.3,54.2,30.19,SW,225,1.0,-999.0,65,0.00,,,0.01,Wunderground v.1.15,2013-04-17 19:45:00,
2013-04-17 15:50:00,66.7,55.0,30.18,SW,225,1.0,-999.0,66,0.00,,,0.01,Wunderground v.1.15,2013-04-17 19:50:00,
2013-04-17 15:55:00,66.9,53.5,30.18,NNE,23,1.0,-999.0,62,0.00,,,0.01,Wunderground v.1.15,2013-04-17 19:55:00,
2013-04-17 16:00:00,66.9,53.9,30.17,NNE,23,1.0,-999.0,63,0.00,,,0.01,Wunderground v.1.15,2013-04-17 20:00:00,
2013-04-17 16:05:00,67.1,55.4,30.18,SSW,203,3.0,-999.0,66,0.00,,,0.01,Wunderground v.1.15,2013-04-17 20:05:00,
2013-04-17 16:10:00,67.2,55.0,30.17,NNE,23,1.0,-999.0,65,0.00,,,0.01,Wunderground v.1.15,2013-04-17 20:10:00,
2013-04-17 16:15:00,67.4,55.6,30.17,SSW,203,1.0,-999.0,66,0.00,,,0.01,Wunderground v.1.15,2013-04-17 20:15:00,
2013-04-17 16:20:00,67.5,55.3,30.17,SSW,203,3.0,-999.0,65,0.00,,,0.01,Wunderground v.1.15,2013-04-17 20:20:00,
2013-04-17 16:25:00,67.4,56.1,30.17,SSW,203,2.0,-999.0,67,0.00,,,0.01,Wunderground v.1.15,2013-04-17 20:25:00,
2013-04-17 16:30:00,67.4,54.4,30.17,SW,225,1.0,-999.0,63,0.00,,,0.01,Wunderground v.1.15,2013-04-17 20:30:00,
2013-04-17 16:35:00,67.4,54.8,30.17,ESE,113,1.0,-999.0,64,0.00,,,0.01,Wunderground v.1.15,2013-04-17 20:35:00,
2013-04-17 16:40:00,67.6,54.1,30.16,SE,135,1.0,-999.0,62,0.00,,,0.01,Wunderground v.1.15,2013-04-17 20:40:00,
2013-04-17 16:45:00,67.8,54.7,30.16,SE,135,1.0,-999.0,63,0.00,,,0.01,Wunderground v.1.15,2013-04-17 20:45:00,
2013-04-17 16:50:00,67.9,54.4,30.16,SE,135,3.0,-999.0,62,0.00,,,0.01,Wunderground v.1.15,2013-04-17 20:50:00,
2013-04-17 16:55:00,67.7,54.6,30.16,SSE,158,2.0,-999.0,63,0.00,,,0.01,Wunderground v.1.15,2013-04-17 20:55:00,
2013-04-17 17:00:00,67.7,55.1,30.16,NNE,23,3.0,-999.0,64,0.00,,,0.01,Wunderground v.1.15,2013-04-17 21:00:00,
2013-04-17 17:05:00,67.5,56.2,30.16,SSW,203,1.0,-999.0,67,0.00,,,0.01,Wunderground v.1.15,2013-04-17 21:05:00,
2013-04-17 17:10:00,67.7,55.1,30.16,NW,315,0.0,-999.0,64,0.00,,,0.01,Wunderground v.1.15,2013-04-17 21:10:00,
2013-04-17 17:15:00,67.9,55.3,30.16,NNE,23,1.0,-999.0,64,0.00,,,0.01,Wunderground v.1.15,2013-04-17 21:15:00,
2013-04-17 17:20:00,68.3,55.6,30.15,SSE,158,3.0,-999.0,64,0.00,,,0.01,Wunderground v.1.15,2013-04-17 21:20:00,
2013-04-17 17:25:00,68.5,55.4,30.15,SE,135,1.0,-999.0,63,0.00,,,0.01,Wunderground v.1.15,2013-04-17 21:25:00,
2013-04-17 17:30:00,68.9,54.9,30.15,NW,315,1.0,-999.0,61,0.00,,,0.01,Wunderground v.1.15,2013-04-17 21:30:00,
2013-04-17 17:35:00,69.0,55.4,30.15,SSE,158,1.0,-999.0,62,0.00,,,0.01,Wunderground v.1.15,2013-04-17 21:35:00,
2013-04-17 17:40:00,68.7,56.0,30.15,SSW,203,1.0,-999.0,64,0.00,,,0.01,Wunderground v.1.15,2013-04-17 21:40:00,
2013-04-17 17:45:00,68.6,55.5,30.15,NE,45,1.0,-999.0,63,0.00,,,0.01,Wunderground v.1.15,2013-04-17 21:45:00,
2013-04-17 17:50:00,68.4,55.7,30.14,East,90,1.0,-999.0,64,0.00,,,0.01,Wunderground v.1.15,2013-04-17 21:50:00,
2013-04-17 17:55:00,68.4,55.3,30.14,NE,45,2.0,-999.0,63,0.00,,,0.01,Wunderground v.1.15,2013-04-17 21:55:00,
2013-04-17 18:00:00,68.1,55.5,30.14,SW,225,2.0,-999.0,64,0.00,,,0.01,Wunderground v.1.15,2013-04-17 22:00:00,
2013-04-17 18:05:00,68.4,56.2,30.14,SW,225,2.0,-999.0,65,0.00,,,0.01,Wunderground v.1.15,2013-04-17 22:05:00,
2013-04-17 18:10:00,69.4,55.8,30.14,SSW,203,2.0,-999.0,62,0.00,,,0.01,Wunderground v.1.15,2013-04-17 22:10:00,
2013-04-17 18:15:00,69.9,56.3,30.14,SSW,203,3.0,-999.0,62,0.00,,,0.01,Wunderground v.1.15,2013-04-17 22:15:00,
2013-04-17 18:20:00,69.8,57.5,30.14,SSW,203,4.0,-999.0,65,0.00,,,0.01,Wunderground v.1.15,2013-04-17 22:20:00,
2013-04-17 18:25:00,69.7,57.0,30.14,ESE,113,3.0,-999.0,64,0.00,,,0.01,Wunderground v.1.15,2013-04-17 22:25:00,
2013-04-17 18:30:00,69.6,56.9,30.13,NE,45,2.0,-999.0,64,0.00,,,0.01,Wunderground v.1.15,2013-04-17 22:30:00,
2013-04-17 18:35:00,69.7,56.5,30.13,SW,225,2.0,-999.0,63,0.00,,,0.01,Wunderground v.1.15,2013-04-17 22:35:00,
2013-04-17 18:40:00,69.3,56.2,30.13,SSW,203,3.0,-999.0,63,0.00,,,0.01,Wunderground v.1.15,2013-04-17 22:40:00,
2013-04-17 18:45:00,69.0,55.9,30.13,ESE,113,2.0,-999.0,63,0.00,,,0.01,Wunderground v.1.15,2013-04-17 22:45:00,
2013-04-17 18:50:00,69.0,56.7,30.12,NNW,338,1.0,-999.0,65,0.00,,,0.01,Wunderground v.1.15,2013-04-17 22:50:00,
2013-04-17 18:55:00,69.2,56.5,30.12,SSE,158,1.0,-999.0,64,0.00,,,0.01,Wunderground v.1.15,2013-04-17 22:55:00,
2013-04-17 19:00:00,69.2,56.9,30.12,SW,225,0.0,-999.0,65,0.00,,,0.01,Wunderground v.1.15,2013-04-17 23:00:00,
2013-04-17 19:05:00,68.9,56.6,30.11,SSW,203,2.0,-999.0,65,0.00,,,0.01,Wunderground v.1.15,2013-04-17 23:05:00,
2013-04-17 19:10:00,68.1,56.3,30.12,NNE,23,1.0,-999.0,66,0.00,,,0.01,Wunderground v.1.15,2013-04-17 23:10:00,
2013-04-17 19:15:00,67.3,56.0,30.12,ENE,68,1.0,-999.0,67,0.00,,,0.01,Wunderground v.1.15,2013-04-17 23:15:00,
2013-04-17 19:20:00,66.7,55.8,30.12,WSW,248,1.0,-999.0,68,0.00,,,0.01,Wunderground v.1.15,2013-04-17 23:20:00,
2013-04-17 19:25:00,66.0,55.9,30.11,WNW,293,1.0,-999.0,70,0.00,,,0.01,Wunderground v.1.15,2013-04-17 23:25:00,
2013-04-17 19:30:00,65.5,55.8,30.11,SW,225,0.0,-999.0,71,0.00,,,0.01,Wunderground v.1.15,2013-04-17 23:30:00,
2013-04-17 19:35:00,65.2,55.6,30.10,WSW,248,1.0,-999.0,71,0.00,,,0.01,Wunderground v.1.15,2013-04-17 23:35:00,
2013-04-17 19:40:00,64.8,55.6,30.11,SSW,203,2.0,-999.0,72,0.00,,,0.01,Wunderground v.1.15,2013-04-17 23:40:00,
2013-04-17 19:45:00,64.6,55.4,30.11,East,90,0.0,-999.0,72,0.00,,,0.01,Wunderground v.1.15,2013-04-17 23:45:00,
2013-04-17 19:50:00,64.3,55.5,30.12,East,90,0.0,-999.0,73,0.00,,,0.01,Wunderground v.1.15,2013-04-17 23:50:00,
2013-04-17 19:55:00,64.0,55.5,30.13,North,0,0.0,-999.0,74,0.00,,,0.01,Wunderground v.1.15,2013-04-17 23:55:00,
2013-04-17 20:00:00,63.7,56.0,30.13,SE,135,1.0,-999.0,76,0.00,,,0.01,Wunderground v.1.15,2013-04-18 00:00:00,
2013-04-17 20:05:00,63.3,55.6,30.13,N/A,-737280,0.0,-999.0,76,0.00,,,0.01,Wunderground v.1.15,2013-04-18 00:05:00,
2013-04-17 20:10:00,62.8,55.8,30.14,N/A,-737280,0.0,-999.0,78,0.00,,,0.01,Wunderground v.1.15,2013-04-18 00:10:00,
2013-04-17 20:15:00,62.2,55.6,30.14,South,180,2.0,-999.0,79,0.00,,,0.01,Wunderground v.1.15,2013-04-18 00:15:00,
2013-04-17 20:20:00,62.1,55.5,30.14,SSW,203,2.0,-999.0,79,0.00,,,0.01,Wunderground v.1.15,2013-04-18 00:20:00,
2013-04-17 20:25:00,62.2,55.6,30.14,SSW,203,1.0,-999.0,79,0.00,,,0.01,Wunderground v.1.15,2013-04-18 00:25:00,
2013-04-17 20:30:00,62.2,55.6,30.14,SW,225,0.0,-999.0,79,0.00,,,0.01,Wunderground v.1.15,2013-04-18 00:30:00,
2013-04-17 20:35:00,62.0,55.8,30.14,SE,135,0.0,-999.0,80,0.00,,,0.01,Wunderground v.1.15,2013-04-18 00:35:00,
2013-04-17 20:40:00,61.8,55.9,30.14,N/A,-737280,0.0,-999.0,81,0.00,,,0.01,Wunderground v.1.15,2013-04-18 00:40:00,
2013-04-17 20:45:00,61.5,55.6,30.14,N/A,-737280,0.0,-999.0,81,0.00,,,0.01,Wunderground v.1.15,2013-04-18 00:45:00,
2013-04-17 20:50:00,61.2,55.3,30.13,N/A,-737280,0.0,-999.0,81,0.00,,,0.01,Wunderground v.1.15,2013-04-18 00:50:00,
2013-04-17 20:55:00,60.9,55.4,30.14,N/A,-737280,0.0,-999.0,82,0.00,,,0.01,Wunderground v.1.15,2013-04-18 00:55:00,
2013-04-17 21:00:00,60.7,55.2,30.13,N/A,-737280,0.0,-999.0,82,0.00,,,0.01,Wunderground v.1.15,2013-04-18 01:00:00,
2013-04-17 21:05:00,60.5,55.3,30.13,N/A,-737280,0.0,-999.0,83,0.00,,,0.01,Wunderground v.1.15,2013-04-18 01:05:00,
2013-04-17 21:10:00,60.2,55.0,30.12,N/A,-737280,0.0,-999.0,83,0.00,,,0.01,Wunderground v.1.15,2013-04-18 01:10:00,
2013-04-17 21:15:00,60.0,55.2,30.12,N/A,-737280,0.0,-999.0,84,0.00,,,0.01,Wunderground v.1.15,2013-04-18 01:15:00,
2013-04-17 21:20:00,59.8,55.3,30.12,SSW,203,0.0,-999.0,85,0.00,,,0.01,Wunderground v.1.15,2013-04-18 01:20:00,
2013-04-17 21:25:00,59.7,55.5,30.12,SW,225,1.0,-999.0,86,0.00,,,0.01,Wunderground v.1.15,2013-04-18 01:25:00,
2013-04-17 21:30:00,59.9,55.4,30.11,SW,225,0.0,-999.0,85,0.00,,,0.01,Wunderground v.1.15,2013-04-18 01:30:00,
2013-04-17 21:35:00,59.7,55.5,30.11,SSW,203,0.0,-999.0,86,0.00,,,0.01,Wunderground v.1.15,2013-04-18 01:35:00,
2013-04-17 21:40:00,59.5,55.3,30.10,SSW,203,0.0,-999.0,86,0.00,,,0.01,Wunderground v.1.15,2013-04-18 01:40:00,
2013-04-17 21:45:00,59.3,55.4,30.10,SSW,203,0.0,-999.0,87,0.00,,,0.01,Wunderground v.1.15,2013-04-18 01:45:00,
2013-04-17 21:50:00,59.3,55.4,30.09,NNE,23,0.0,-999.0,87,0.00,,,0.01,Wunderground v.1.15,2013-04-18 01:50:00,
2013-04-17 21:55:00,59.4,55.5,30.09,NNE,23,0.0,-999.0,87,0.00,,,0.01,Wunderground v.1.15,2013-04-18 01:55:00,
2013-04-17 22:00:00,59.4,55.5,30.09,SW,225,0.0,-999.0,87,0.00,,,0.01,Wunderground v.1.15,2013-04-18 02:00:00,
2013-04-17 22:05:00,59.4,55.5,30.08,N/A,-737280,0.0,-999.0,87,0.00,,,0.01,Wunderground v.1.15,2013-04-18 02:05:00,
2013-04-17 22:10:00,59.3,55.4,30.08,N/A,-737280,0.0,-999.0,87,0.00,,,0.01,Wunderground v.1.15,2013-04-18 02:10:00,
2013-04-17 22:15:00,59.3,55.7,30.08,NW,315,1.0,-999.0,88,0.00,,,0.01,Wunderground v.1.15,2013-04-18 02:15:00,
2013-04-17 22:20:00,59.4,55.5,30.08,NW,315,0.0,-999.0,87,0.00,,,0.01,Wunderground v.1.15,2013-04-18 02:20:00,
2013-04-17 22:25:00,59.3,55.4,30.08,NW,315,0.0,-999.0,87,0.00,,,0.01,Wunderground v.1.15,2013-04-18 02:25:00,
2013-04-17 22:30:00,59.2,55.3,30.08,N/A,-737280,0.0,-999.0,87,0.00,,,0.01,Wunderground v.1.15,2013-04-18 02:30:00,
2013-04-17 22:35:00,59.0,55.1,30.08,N/A,-737280,0.0,-999.0,87,0.00,,,0.01,Wunderground v.1.15,2013-04-18 02:35:00,
2013-04-17 22:40:00,58.6,55.1,30.07,NE,45,1.0,-999.0,88,0.00,,,0.01,Wunderground v.1.15,2013-04-18 02:40:00,
2013-04-17 22:45:00,58.5,55.3,30.06,NNE,23,1.0,-999.0,89,0.00,,,0.01,Wunderground v.1.15,2013-04-18 02:45:00,
2013-04-17 22:50:00,58.7,55.5,30.06,NNE,23,0.0,-999.0,89,0.00,,,0.01,Wunderground v.1.15,2013-04-18 02:50:00,
2013-04-17 22:55:00,58.9,55.7,30.06,SSE,158,1.0,-999.0,89,0.00,,,0.01,Wunderground v.1.15,2013-04-18 02:55:00,
2013-04-17 23:00:00,59.1,55.5,30.07,SSE,158,0.0,-999.0,88,0.00,,,0.01,Wunderground v.1.15,2013-04-18 03:00:00,
2013-04-17 23:05:00,59.1,55.5,30.07,N/A,-737280,0.0,-999.0,88,0.00,,,0.01,Wunderground v.1.15,2013-04-18 03:05:00,
2013-04-17 23:10:00,58.9,55.4,30.08,SSE,158,0.0,-999.0,88,0.00,,,0.01,Wunderground v.1.15,2013-04-18 03:10:00,
2013-04-17 23:15:00,58.5,55.0,30.08,SSE,158,0.0,-999.0,88,0.00,,,0.01,Wunderground v.1.15,2013-04-18 03:15:00,
2013-04-17 23:20:00,58.1,54.9,30.08,SSE,158,0.0,-999.0,89,0.00,,,0.01,Wunderground v.1.15,2013-04-18 03:20:00,
2013-04-17 23:25:00,57.8,54.6,30.08,N/A,-737280,0.0,-999.0,89,0.00,,,0.01,Wunderground v.1.15,2013-04-18 03:25:00,
2013-04-17 23:30:00,57.5,54.3,30.07,N/A,-737280,0.0,-999.0,89,0.00,,,0.01,Wunderground v.1.15,2013-04-18 03:30:00,
2013-04-17 23:35:00,57.1,54.2,30.08,N/A,-737280,0.0,-999.0,90,0.00,,,0.01,Wunderground v.1.15,2013-04-18 03:35:00,
2013-04-17 23:40:00,56.9,54.0,30.08,N/A,-737280,0.0,-999.0,90,0.00,,,0.01,Wunderground v.1.15,2013-04-18 03:40:00,
2013-04-17 23:45:00,56.8,54.2,30.07,N/A,-737280,0.0,-999.0,91,0.00,,,0.01,Wunderground v.1.15,2013-04-18 03:45:00,
2013-04-17 23:50:00,56.8,54.2,30.07,N/A,-737280,0.0,-999.0,91,0.00,,,0.01,Wunderground v.1.15,2013-04-18 03:50:00,
2013-04-17 23:55:00,56.8,54.5,30.08,N/A,-737280,0.0,-999.0,92,0.00,,,0.01,Wunderground v.1.15,2013-04-18 03:55:00,